Terminal Aerodrome Forecast
Issued by NWS

Home | Current Version | Previous Version | Text Only | Print | Product List | Glossary On
Versions: 1 2 3 4 5 6 7 8 9 10 11 12 13
793
FTUS41 KCAR 290539
TAFHUL
TAF
KHUL 290539Z 2906/3006 12006KT P6SM OVC090
     FM300000 15006KT P6SM VCSH OVC050
     FM300300 15004KT P6SM -SHRA OVC025=

USA.gov is the U.S. government's official web portal to all federal, state and local government web resources and services.